Time;durP1;ratioP1;P1;durP2;ratioP2;P2;SDS_P1;SDS_P2;PMS_P1;PMS_P2;Temp;Humidity;BMP_temperature;BMP_pressure;BME280_temperature;BME280_humidity;BME280_pressure;Samples;Min_cycle;Max_cycle;Signal;HPM_P1;HPM_P2
2023/04/18 00:00:25;;;;;;;9.47;8.00;;;7.30;99.90;;;;;;493992;241;28489;-75
2023/04/18 00:02:28;;;;;;;9.37;7.23;;;7.30;99.90;;;;;;493815;241;28484;-75
2023/04/18 00:04:27;;;;;;;10.30;7.23;;;7.20;99.90;;;;;;493704;241;28048;-76
2023/04/18 00:06:29;;;;;;;9.60;7.50;;;7.20;99.90;;;;;;493932;241;27842;-75
2023/04/18 00:08:30;;;;;;;9.60;7.40;;;7.20;99.90;;;;;;493973;241;27938;-75
2023/04/18 00:10:31;;;;;;;9.70;7.77;;;7.20;99.90;;;;;;493940;241;28047;-75
2023/04/18 00:12:33;;;;;;;10.83;7.47;;;7.20;99.90;;;;;;493978;241;28068;-75
2023/04/18 00:14:34;;;;;;;12.67;7.33;;;7.20;99.90;;;;;;493894;241;27978;-76
2023/04/18 00:16:36;;;;;;;10.83;7.63;;;7.30;99.90;;;;;;493942;241;28055;-75
2023/04/18 00:18:36;;;;;;;10.90;7.70;;;7.20;99.90;;;;;;493863;241;28376;-76
2023/04/18 00:20:38;;;;;;;11.30;8.10;;;7.10;99.90;;;;;;493954;241;28821;-76
2023/04/18 00:22:42;;;;;;;11.77;8.40;;;7.00;99.90;;;;;;493932;241;28095;-75
2023/04/18 00:24:42;;;;;;;13.87;7.90;;;6.90;99.90;;;;;;493821;241;28678;-76
2023/04/18 00:26:44;;;;;;;9.27;7.63;;;6.90;99.90;;;;;;493903;241;28148;-76
2023/04/18 00:28:45;;;;;;;11.00;8.30;;;6.90;99.90;;;;;;493902;241;27748;-75
2023/04/18 00:30:47;;;;;;;12.73;8.03;;;6.70;99.90;;;;;;494025;241;27996;-74
2023/04/18 00:32:47;;;;;;;10.20;7.93;;;6.80;99.90;;;;;;493951;237;27816;-75
2023/04/18 00:34:49;;;;;;;9.20;6.63;;;6.70;99.90;;;;;;493917;241;27977;-76
2023/04/18 00:36:50;;;;;;;10.20;7.67;;;6.70;99.90;;;;;;493988;237;27813;-76
2023/04/18 00:38:51;;;;;;;9.77;6.90;;;6.60;99.90;;;;;;493941;237;28875;-75
2023/04/18 00:40:52;;;;;;;8.35;7.40;;;6.60;99.90;;;;;;493941;237;27801;-75
2023/04/18 00:42:54;;;;;;;11.40;8.30;;;6.50;99.90;;;;;;493989;241;27925;-75
2023/04/18 00:44:55;;;;;;;11.65;7.22;;;6.50;99.90;;;;;;493921;241;29469;-74
2023/04/18 00:46:56;;;;;;;14.02;7.45;;;6.50;99.90;;;;;;493984;241;27470;-75
2023/04/18 00:48:57;;;;;;;8.63;7.23;;;6.40;99.90;;;;;;493970;241;27514;-75
2023/04/18 00:50:59;;;;;;;10.27;7.40;;;6.40;99.90;;;;;;494010;241;28887;-75
2023/04/18 00:53:00;;;;;;;13.60;7.40;;;6.30;99.90;;;;;;494049;241;28632;-75
2023/04/18 00:55:01;;;;;;;12.20;8.15;;;6.30;99.90;;;;;;493704;241;28941;-75
2023/04/18 00:57:02;;;;;;;9.23;6.75;;;6.20;99.90;;;;;;494008;241;27925;-75
2023/04/18 00:59:04;;;;;;;11.35;7.03;;;6.20;99.90;;;;;;493988;241;28007;-75
2023/04/18 01:01:05;;;;;;;21.33;8.17;;;6.00;99.90;;;;;;494010;241;27599;-75
2023/04/18 01:03:07;;;;;;;11.32;6.72;;;6.00;99.90;;;;;;494005;241;28264;-76
2023/04/18 01:05:08;;;;;;;8.02;7.20;;;5.90;99.90;;;;;;493765;241;27615;-75
2023/04/18 01:07:09;;;;;;;9.05;7.15;;;5.90;99.90;;;;;;493946;241;27542;-75
2023/04/18 01:09:10;;;;;;;9.68;7.80;;;5.90;99.90;;;;;;493795;241;28059;-75
2023/04/18 01:11:11;;;;;;;12.80;7.78;;;5.80;99.90;;;;;;493997;241;28077;-76
2023/04/18 01:13:13;;;;;;;12.85;7.53;;;5.70;99.90;;;;;;493876;237;27454;-75
2023/04/18 01:15:14;;;;;;;8.48;7.43;;;5.70;99.90;;;;;;493920;241;27493;-76
2023/04/18 01:17:16;;;;;;;9.82;7.80;;;5.80;99.90;;;;;;493967;241;27493;-75
2023/04/18 01:19:17;;;;;;;10.80;8.30;;;5.80;99.90;;;;;;493909;241;27619;-76
2023/04/18 01:21:19;;;;;;;9.35;7.72;;;5.80;99.90;;;;;;494015;237;27524;-76
2023/04/18 01:23:19;;;;;;;10.27;7.78;;;5.80;99.90;;;;;;493936;237;27903;-76
2023/04/18 01:25:20;;;;;;;10.18;7.95;;;5.70;99.90;;;;;;493912;241;28071;-76
2023/04/18 01:27:21;;;;;;;14.38;9.07;;;5.80;99.90;;;;;;493940;241;27496;-76
2023/04/18 01:29:23;;;;;;;13.10;9.02;;;5.90;99.90;;;;;;493951;241;27557;-75
2023/04/18 01:31:24;;;;;;;11.75;8.93;;;6.00;99.90;;;;;;494001;241;28019;-75
2023/04/18 01:33:25;;;;;;;19.35;9.48;;;6.00;99.90;;;;;;493952;241;27612;-75
2023/04/18 01:35:27;;;;;;;13.62;8.77;;;6.00;99.90;;;;;;493809;241;28017;-75
2023/04/18 01:37:28;;;;;;;14.30;9.68;;;5.90;99.90;;;;;;493967;237;28021;-75
2023/04/18 01:39:29;;;;;;;12.02;9.25;;;6.00;99.90;;;;;;493940;241;27537;-75
2023/04/18 01:41:31;;;;;;;12.57;9.35;;;6.00;99.90;;;;;;493955;241;27533;-75
2023/04/18 01:43:31;;;;;;;12.82;9.77;;;6.00;99.90;;;;;;493924;241;27465;-75
2023/04/18 01:45:33;;;;;;;14.30;10.20;;;6.10;99.90;;;;;;493901;241;27603;-75
2023/04/18 01:47:34;;;;;;;12.07;9.38;;;6.20;99.90;;;;;;493821;241;28045;-75
2023/04/18 01:49:35;;;;;;;15.95;10.23;;;6.20;99.90;;;;;;493964;241;27611;-75
2023/04/18 01:51:37;;;;;;;15.95;10.40;;;6.20;99.90;;;;;;493893;239;27533;-75
2023/04/18 01:53:38;;;;;;;12.00;9.88;;;6.10;99.90;;;;;;493907;241;27540;-75
2023/04/18 01:55:39;;;;;;;12.00;9.35;;;6.20;99.90;;;;;;493683;241;27978;-75
2023/04/18 01:57:40;;;;;;;14.68;9.77;;;6.20;99.90;;;;;;493963;241;27910;-75
2023/04/18 01:59:42;;;;;;;13.35;9.77;;;6.10;99.90;;;;;;493985;241;27489;-75
2023/04/18 02:01:43;;;;;;;13.40;9.75;;;6.00;99.90;;;;;;494015;241;27634;-75
2023/04/18 02:03:44;;;;;;;15.98;9.88;;;5.90;99.90;;;;;;493859;241;27457;-75
2023/04/18 02:05:45;;;;;;;11.57;9.52;;;5.90;99.90;;;;;;493922;241;27513;-75
2023/04/18 02:07:48;;;;;;;11.25;10.10;;;5.90;99.90;;;;;;493967;241;28136;-76
2023/04/18 02:09:48;;;;;;;12.55;9.85;;;5.90;99.90;;;;;;493803;241;27473;-75
2023/04/18 02:11:49;;;;;;;12.37;9.77;;;5.90;99.90;;;;;;493898;241;27638;-75
2023/04/18 02:13:50;;;;;;;15.02;11.12;;;6.00;99.90;;;;;;493952;241;27481;-75
2023/04/18 02:15:52;;;;;;;15.90;10.52;;;6.00;99.90;;;;;;493896;241;27508;-76
2023/04/18 02:17:54;;;;;;;17.45;11.50;;;6.10;99.90;;;;;;493998;241;27958;-75
2023/04/18 02:19:54;;;;;;;15.95;11.50;;;6.10;99.90;;;;;;493958;241;27534;-75
2023/04/18 02:21:55;;;;;;;15.35;11.20;;;6.10;99.90;;;;;;493978;241;27521;-75
2023/04/18 02:23:57;;;;;;;14.18;11.25;;;6.00;99.90;;;;;;493948;241;27465;-75
2023/04/18 02:25:58;;;;;;;13.30;10.88;;;6.00;99.90;;;;;;493921;241;27565;-76
2023/04/18 02:27:59;;;;;;;12.90;10.27;;;6.00;99.90;;;;;;493973;237;28048;-75
2023/04/18 02:30:01;;;;;;;13.35;10.68;;;5.90;99.90;;;;;;493943;241;27481;-75
2023/04/18 02:32:02;;;;;;;23.77;12.10;;;5.90;99.90;;;;;;493942;241;27548;-75
2023/04/18 02:34:03;;;;;;;18.42;11.35;;;5.90;99.90;;;;;;493947;241;27477;-75
2023/04/18 02:36:04;;;;;;;16.00;11.43;;;5.80;99.90;;;;;;493915;241;27468;-76
2023/04/18 02:38:06;;;;;;;17.62;11.60;;;5.80;99.90;;;;;;493976;241;27989;-75
2023/04/18 02:40:07;;;;;;;13.90;10.40;;;5.80;99.90;;;;;;493913;241;27554;-75
2023/04/18 02:42:08;;;;;;;16.90;11.12;;;5.80;99.90;;;;;;493871;241;27604;-75
2023/04/18 02:44:09;;;;;;;15.65;10.77;;;5.70;99.90;;;;;;493951;241;27851;-74
2023/04/18 02:46:11;;;;;;;21.80;11.35;;;5.60;99.90;;;;;;493938;241;27632;-75
2023/04/18 02:48:12;;;;;;;19.12;11.60;;;5.60;99.90;;;;;;493957;241;28199;-75
2023/04/18 02:50:13;;;;;;;15.02;11.60;;;5.60;99.90;;;;;;493967;241;27460;-75
2023/04/18 02:52:14;;;;;;;17.20;12.05;;;5.70;99.90;;;;;;493995;241;27499;-75
2023/04/18 02:54:16;;;;;;;15.18;12.32;;;5.70;99.90;;;;;;493947;241;27520;-75
2023/04/18 02:56:17;;;;;;;18.00;11.12;;;5.70;99.90;;;;;;493933;241;27549;-75
2023/04/18 02:58:18;;;;;;;19.73;11.12;;;5.80;99.90;;;;;;493991;241;28072;-75
2023/04/18 03:00:20;;;;;;;17.83;12.43;;;5.80;99.90;;;;;;493956;241;27455;-75
2023/04/18 03:02:21;;;;;;;16.95;12.98;;;5.70;99.90;;;;;;494021;237;27473;-75
2023/04/18 03:04:22;;;;;;;17.75;12.07;;;5.80;99.90;;;;;;493958;241;27513;-75
2023/04/18 03:06:23;;;;;;;15.00;12.30;;;5.70;99.90;;;;;;493954;241;28109;-75
2023/04/18 03:08:25;;;;;;;14.95;11.75;;;5.70;99.90;;;;;;493910;241;27988;-75
2023/04/18 03:10:26;;;;;;;15.85;11.07;;;5.70;99.90;;;;;;493977;241;27537;-75
2023/04/18 03:12:27;;;;;;;20.10;12.45;;;5.60;99.90;;;;;;493962;241;27477;-75
2023/04/18 03:14:28;;;;;;;19.58;12.15;;;5.70;99.90;;;;;;493912;241;27546;-75
2023/04/18 03:16:31;;;;;;;18.33;11.93;;;5.70;99.90;;;;;;493956;241;27993;-75
2023/04/18 03:18:31;;;;;;;15.77;12.43;;;5.60;99.90;;;;;;493818;241;28088;-75
2023/04/18 03:20:32;;;;;;;16.80;12.82;;;5.60;99.90;;;;;;493883;241;27592;-75
2023/04/18 03:22:33;;;;;;;19.87;11.90;;;5.60;99.90;;;;;;493979;241;27562;-75
2023/04/18 03:24:35;;;;;;;17.77;12.63;;;5.60;99.90;;;;;;493915;241;27551;-75
2023/04/18 03:26:36;;;;;;;24.52;15.68;;;5.60;99.90;;;;;;493925;241;27569;-75
2023/04/18 03:28:37;;;;;;;36.85;26.15;;;5.60;99.90;;;;;;493895;241;28032;-75
2023/04/18 03:30:38;;;;;;;24.87;20.80;;;5.60;99.90;;;;;;494011;241;27531;-75
2023/04/18 03:32:40;;;;;;;14.87;12.70;;;5.50;99.90;;;;;;493786;241;27513;-75
2023/04/18 03:34:41;;;;;;;15.20;11.55;;;5.50;99.90;;;;;;493869;241;27501;-75
2023/04/18 03:36:42;;;;;;;18.42;11.70;;;5.60;99.90;;;;;;493879;241;28014;-75
2023/04/18 03:38:44;;;;;;;17.60;11.77;;;5.70;99.90;;;;;;493891;241;27577;-75
2023/04/18 03:40:45;;;;;;;16.67;11.68;;;5.70;99.90;;;;;;493968;241;27509;-75
2023/04/18 03:42:46;;;;;;;15.60;11.70;;;5.80;99.90;;;;;;493960;241;27537;-75
2023/04/18 03:44:47;;;;;;;15.27;11.50;;;5.90;99.90;;;;;;493910;241;27513;-75
2023/04/18 03:46:49;;;;;;;16.70;12.25;;;5.90;99.90;;;;;;493936;241;28852;-75
2023/04/18 03:48:50;;;;;;;16.90;11.60;;;6.00;99.90;;;;;;493872;241;27473;-75
2023/04/18 03:50:51;;;;;;;16.45;11.18;;;6.00;99.90;;;;;;493982;241;27560;-75
2023/04/18 03:52:52;;;;;;;16.83;11.38;;;6.00;99.90;;;;;;493949;241;27475;-75
2023/04/18 03:54:54;;;;;;;19.12;11.38;;;6.10;99.90;;;;;;493753;241;27502;-75
2023/04/18 03:56:56;;;;;;;17.80;11.70;;;6.20;99.90;;;;;;493887;241;29749;-75
2023/04/18 03:58:57;;;;;;;15.93;11.90;;;6.20;99.90;;;;;;493906;241;27514;-75
2023/04/18 04:00:59;;;;;;;16.37;11.35;;;6.20;99.90;;;;;;493875;241;27534;-75
2023/04/18 04:02:59;;;;;;;15.77;11.30;;;6.10;99.90;;;;;;493832;241;27464;-75
2023/04/18 04:05:02;;;;;;;17.62;12.43;;;6.10;99.90;;;;;;493894;241;27967;-75
2023/04/18 04:07:01;;;;;;;14.10;10.68;;;6.20;99.90;;;;;;493817;241;27579;-75
2023/04/18 04:09:03;;;;;;;18.95;11.57;;;6.20;99.90;;;;;;493837;241;27454;-75
2023/04/18 04:11:04;;;;;;;15.68;10.77;;;6.20;99.90;;;;;;493990;241;27595;-75
2023/04/18 04:13:05;;;;;;;19.23;11.50;;;6.20;99.90;;;;;;493997;241;27905;-75
2023/04/18 04:15:06;;;;;;;16.45;11.57;;;6.20;99.90;;;;;;493878;241;29040;-75
2023/04/18 04:17:08;;;;;;;14.65;11.55;;;6.20;99.90;;;;;;493963;241;27628;-76
2023/04/18 04:19:09;;;;;;;14.27;10.25;;;6.20;99.90;;;;;;493962;241;27473;-75
2023/04/18 04:21:10;;;;;;;15.73;11.85;;;6.20;99.90;;;;;;493979;241;27508;-75
2023/04/18 04:23:11;;;;;;;15.85;11.05;;;6.30;99.90;;;;;;493954;241;27472;-75
2023/04/18 04:25:13;;;;;;;16.33;11.63;;;6.20;99.90;;;;;;493688;241;27981;-75
2023/04/18 04:27:14;;;;;;;15.30;11.45;;;6.30;99.90;;;;;;493712;241;27537;-75
2023/04/18 04:29:15;;;;;;;17.35;11.82;;;6.30;99.90;;;;;;493924;241;27479;-75
2023/04/18 04:31:17;;;;;;;19.10;12.88;;;6.30;99.90;;;;;;493992;241;27675;-75
2023/04/18 04:33:18;;;;;;;21.83;12.82;;;6.20;99.90;;;;;;493973;241;28016;-75
2023/04/18 04:35:19;;;;;;;18.42;12.70;;;6.30;99.90;;;;;;493890;241;28076;-75
2023/04/18 04:37:20;;;;;;;18.62;12.18;;;6.30;99.90;;;;;;493969;241;27632;-75
2023/04/18 04:39:21;;;;;;;21.30;12.23;;;6.30;99.90;;;;;;493994;241;27555;-75
2023/04/18 04:41:23;;;;;;;17.03;11.87;;;6.30;99.90;;;;;;493969;241;27545;-75
2023/04/18 04:43:24;;;;;;;18.25;11.98;;;6.20;99.90;;;;;;493945;241;29271;-75
2023/04/18 04:45:25;;;;;;;18.52;12.98;;;6.20;99.90;;;;;;493938;241;27926;-76
2023/04/18 04:47:27;;;;;;;18.85;12.85;;;6.20;99.90;;;;;;494029;241;27607;-75
2023/04/18 04:49:28;;;;;;;24.70;13.73;;;6.20;99.90;;;;;;494023;241;27461;-75
2023/04/18 04:51:30;;;;;;;19.15;12.95;;;6.20;99.90;;;;;;493964;241;27512;-75
2023/04/18 04:53:30;;;;;;;26.10;14.55;;;6.20;99.90;;;;;;493931;241;28706;-75
2023/04/18 04:55:32;;;;;;;19.17;13.80;;;6.20;99.90;;;;;;493961;241;27467;-75
2023/04/18 04:57:33;;;;;;;20.85;14.50;;;6.20;99.90;;;;;;493881;241;27616;-75
2023/04/18 04:59:35;;;;;;;23.52;15.23;;;6.20;99.90;;;;;;493907;241;27475;-75
2023/04/18 05:01:35;;;;;;;21.40;13.73;;;6.20;99.90;;;;;;493941;241;27513;-75
2023/04/18 05:03:37;;;;;;;19.10;14.32;;;6.20;99.90;;;;;;494027;237;28084;-74
2023/04/18 05:05:38;;;;;;;22.15;14.35;;;6.20;99.90;;;;;;493883;241;27551;-75
2023/04/18 05:07:39;;;;;;;18.80;13.90;;;6.20;99.90;;;;;;493974;241;27496;-76
2023/04/18 05:09:40;;;;;;;21.12;15.55;;;6.20;99.90;;;;;;493971;241;27458;-75
2023/04/18 05:11:42;;;;;;;21.58;14.43;;;6.30;99.90;;;;;;493915;241;27603;-75
2023/04/18 05:13:43;;;;;;;19.75;15.13;;;6.20;99.90;;;;;;493986;241;28255;-75
2023/04/18 05:15:44;;;;;;;19.98;14.70;;;6.30;99.90;;;;;;493923;241;27458;-75
2023/04/18 05:17:46;;;;;;;23.60;14.80;;;6.30;99.90;;;;;;493984;241;27521;-76
2023/04/18 05:19:47;;;;;;;18.90;13.65;;;6.30;99.90;;;;;;493950;241;27557;-75
2023/04/18 05:21:48;;;;;;;24.33;13.80;;;6.30;99.90;;;;;;493920;241;28042;-76
2023/04/18 05:23:49;;;;;;;21.77;15.38;;;6.40;99.90;;;;;;493985;241;29478;-75
2023/04/18 05:25:51;;;;;;;20.95;14.50;;;6.40;99.90;;;;;;493925;241;27548;-76
2023/04/18 05:27:52;;;;;;;23.85;14.70;;;6.40;99.90;;;;;;493983;241;27591;-75
2023/04/18 05:29:53;;;;;;;24.60;15.03;;;6.40;99.90;;;;;;493922;241;27558;-75
2023/04/18 05:31:54;;;;;;;24.37;15.73;;;6.40;99.90;;;;;;493940;241;28920;-75
2023/04/18 05:33:56;;;;;;;20.67;15.38;;;6.40;99.90;;;;;;493990;241;29460;-75
2023/04/18 05:35:57;;;;;;;20.52;15.00;;;6.40;99.90;;;;;;493917;241;27511;-75
2023/04/18 05:37:58;;;;;;;27.98;15.23;;;6.40;99.90;;;;;;493978;241;27504;-75
2023/04/18 05:39:59;;;;;;;20.45;14.35;;;6.40;99.90;;;;;;493886;241;27461;-75
2023/04/18 05:42:01;;;;;;;21.98;15.93;;;6.40;99.90;;;;;;493980;237;27507;-76
2023/04/18 05:44:02;;;;;;;21.98;15.20;;;6.30;99.90;;;;;;493874;241;28091;-75
2023/04/18 05:46:03;;;;;;;23.83;15.65;;;6.20;99.90;;;;;;493929;239;27461;-75
2023/04/18 05:48:04;;;;;;;21.37;14.60;;;6.30;99.90;;;;;;493923;241;27489;-76
2023/04/18 05:50:06;;;;;;;23.80;15.70;;;6.30;99.90;;;;;;493947;241;27466;-76
2023/04/18 05:52:07;;;;;;;21.33;14.02;;;6.30;99.90;;;;;;493977;241;28076;-76
2023/04/18 05:54:08;;;;;;;20.42;14.95;;;6.30;99.90;;;;;;493960;241;27534;-76
2023/04/18 05:56:10;;;;;;;21.95;14.55;;;6.20;99.90;;;;;;493911;241;27457;-75
2023/04/18 05:58:11;;;;;;;19.00;13.75;;;6.20;99.90;;;;;;493950;241;27601;-76
2023/04/18 06:00:12;;;;;;;22.62;15.05;;;6.20;99.90;;;;;;493920;241;27573;-75
2023/04/18 06:02:13;;;;;;;26.87;15.95;;;6.20;99.90;;;;;;493874;241;28109;-76
2023/04/18 06:04:15;;;;;;;21.33;15.70;;;6.20;99.90;;;;;;493969;241;27502;-76
2023/04/18 06:06:16;;;;;;;21.60;14.23;;;6.20;99.90;;;;;;493915;241;27455;-75
2023/04/18 06:08:17;;;;;;;20.17;13.15;;;6.20;99.90;;;;;;493950;241;27668;-75
2023/04/18 06:10:18;;;;;;;23.83;15.32;;;6.20;99.90;;;;;;493843;237;27917;-75
2023/04/18 06:12:20;;;;;;;24.52;14.73;;;6.20;99.90;;;;;;493978;241;28026;-75
2023/04/18 06:14:21;;;;;;;21.40;14.27;;;6.20;99.90;;;;;;493867;241;27500;-76
2023/04/18 06:16:22;;;;;;;22.02;14.80;;;6.20;99.90;;;;;;493950;241;27458;-75
2023/04/18 06:18:23;;;;;;;24.08;15.02;;;6.20;99.90;;;;;;493868;241;27525;-75
2023/04/18 06:20:25;;;;;;;20.03;13.93;;;6.30;99.90;;;;;;493832;241;28714;-75
2023/04/18 06:22:26;;;;;;;18.75;12.98;;;6.30;99.90;;;;;;493957;241;28639;-75
2023/04/18 06:24:27;;;;;;;25.77;14.40;;;6.40;99.90;;;;;;493924;241;27511;-75
2023/04/18 06:26:30;;;;;;;23.27;13.55;;;6.40;99.90;;;;;;493974;241;27452;-75
2023/04/18 06:28:30;;;;;;;20.30;13.65;;;6.40;99.90;;;;;;493723;241;27509;-75
2023/04/18 06:30:31;;;;;;;20.48;14.15;;;6.50;99.90;;;;;;493917;237;28025;-75
2023/04/18 06:32:32;;;;;;;21.48;13.32;;;6.50;99.90;;;;;;494010;241;27508;-75
2023/04/18 06:34:34;;;;;;;26.30;14.57;;;6.60;99.90;;;;;;493888;237;27588;-76
2023/04/18 06:36:35;;;;;;;21.67;13.27;;;6.60;99.90;;;;;;493983;241;27479;-76
2023/04/18 06:38:36;;;;;;;19.50;13.90;;;6.60;99.90;;;;;;493986;241;27937;-76
2023/04/18 06:40:37;;;;;;;19.90;13.57;;;6.50;99.90;;;;;;494019;241;28473;-75
2023/04/18 06:42:39;;;;;;;17.50;13.00;;;6.50;99.90;;;;;;493982;241;28510;-75
2023/04/18 06:44:41;;;;;;;17.57;13.07;;;6.60;99.90;;;;;;493903;241;30391;-75
2023/04/18 06:46:41;;;;;;;37.03;14.10;;;6.60;99.90;;;;;;493900;241;27974;-75
2023/04/18 06:48:42;;;;;;;18.30;13.43;;;6.50;99.90;;;;;;493953;241;27887;-75
2023/04/18 06:50:44;;;;;;;21.12;13.88;;;6.50;99.90;;;;;;494017;241;27518;-76
2023/04/18 06:52:45;;;;;;;21.27;13.00;;;6.70;99.90;;;;;;494001;241;27454;-75
2023/04/18 06:54:46;;;;;;;18.47;12.93;;;6.70;99.90;;;;;;493855;241;28423;-75
2023/04/18 06:56:47;;;;;;;18.87;13.23;;;6.70;99.90;;;;;;493915;237;28697;-75
2023/04/18 06:58:50;;;;;;;19.87;14.00;;;6.80;99.90;;;;;;493950;241;28403;-75
2023/04/18 07:00:50;;;;;;;21.83;13.87;;;6.80;99.90;;;;;;493910;241;27991;-75
2023/04/18 07:02:51;;;;;;;20.00;13.10;;;6.80;99.90;;;;;;493874;241;27807;-75
2023/04/18 07:04:52;;;;;;;18.10;13.00;;;6.80;99.90;;;;;;493848;241;27758;-76
2023/04/18 07:06:54;;;;;;;18.07;12.93;;;6.80;99.90;;;;;;493929;241;28896;-76
2023/04/18 07:09:00;;;;;;;17.80;13.17;;;6.90;99.90;;;;;;493967;241;28733;-76
2023/04/18 07:10:56;;;;;;;15.40;11.93;;;7.10;99.90;;;;;;493589;241;28458;-76
2023/04/18 07:12:57;;;;;;;14.73;12.30;;;7.40;99.90;;;;;;493966;241;28361;-76
2023/04/18 07:14:59;;;;;;;17.23;12.00;;;7.60;99.90;;;;;;493887;237;27847;-76
2023/04/18 07:17:00;;;;;;;14.80;11.90;;;7.90;99.90;;;;;;493942;241;28105;-76
2023/04/18 07:19:01;;;;;;;15.83;11.83;;;7.60;99.90;;;;;;493999;241;28080;-76
2023/04/18 07:21:02;;;;;;;16.30;11.93;;;7.60;99.90;;;;;;493982;241;27854;-75
2023/04/18 07:23:05;;;;;;;18.80;12.37;;;7.70;99.90;;;;;;493968;241;27810;-75
2023/04/18 07:25:05;;;;;;;17.10;11.90;;;7.50;99.90;;;;;;493890;241;27890;-76
2023/04/18 07:27:08;;;;;;;16.77;11.70;;;7.50;99.90;;;;;;493960;241;27906;-76
2023/04/18 07:29:08;;;;;;;14.00;11.00;;;7.50;99.90;;;;;;493896;241;28248;-76
2023/04/18 07:31:10;;;;;;;16.70;12.00;;;7.50;99.90;;;;;;493998;241;28162;-76
2023/04/18 07:33:10;;;;;;;20.97;13.70;;;7.40;99.90;;;;;;493915;237;27940;-76
2023/04/18 07:35:11;;;;;;;15.30;12.07;;;7.10;99.90;;;;;;493899;241;27811;-75
2023/04/18 07:37:13;;;;;;;19.50;12.43;;;7.10;99.90;;;;;;494016;241;27840;-76
2023/04/18 07:39:14;;;;;;;17.50;13.30;;;7.00;99.90;;;;;;493987;237;28025;-75
2023/04/18 07:41:15;;;;;;;19.60;13.23;;;7.10;99.90;;;;;;493981;241;28064;-76
2023/04/18 07:43:16;;;;;;;19.50;13.07;;;7.30;99.90;;;;;;493837;237;28519;-75
2023/04/18 07:45:18;;;;;;;24.40;13.60;;;7.50;99.90;;;;;;493935;241;28004;-76
2023/04/18 07:47:19;;;;;;;20.93;13.30;;;7.30;99.90;;;;;;493972;237;27632;-76
2023/04/18 07:49:20;;;;;;;17.30;13.13;;;7.30;99.90;;;;;;493887;241;27876;-76
2023/04/18 07:51:24;;;;;;;19.13;13.33;;;7.10;99.90;;;;;;493990;241;27969;-76
2023/04/18 07:53:23;;;;;;;18.50;13.23;;;7.20;99.90;;;;;;493834;241;27934;-75
2023/04/18 07:55:24;;;;;;;18.97;13.77;;;7.20;99.90;;;;;;493893;241;27958;-76
2023/04/18 07:57:25;;;;;;;17.13;13.03;;;7.20;99.90;;;;;;493932;241;27744;-75
2023/04/18 07:59:26;;;;;;;18.07;13.40;;;7.20;99.90;;;;;;493990;241;28522;-76
2023/04/18 08:01:28;;;;;;;18.77;14.10;;;7.00;99.90;;;;;;493983;241;28146;-76
2023/04/18 08:03:29;;;;;;;22.23;14.43;;;7.00;99.90;;;;;;493979;237;27823;-76
2023/04/18 08:05:30;;;;;;;19.10;13.67;;;7.00;99.90;;;;;;493895;241;27997;-75
2023/04/18 08:07:31;;;;;;;16.37;12.87;;;7.10;99.90;;;;;;493993;241;27625;-76
2023/04/18 08:09:33;;;;;;;18.87;14.20;;;7.10;99.90;;;;;;494030;241;27781;-76
2023/04/18 08:11:34;;;;;;;19.80;13.60;;;7.10;99.90;;;;;;494012;241;27686;-76
2023/04/18 08:13:35;;;;;;;23.63;15.33;;;7.20;99.90;;;;;;493993;241;27674;-76
2023/04/18 08:15:36;;;;;;;23.10;14.90;;;7.00;99.90;;;;;;493920;241;28133;-76
2023/04/18 08:17:38;;;;;;;21.30;14.50;;;7.00;99.90;;;;;;494019;241;28587;-75
2023/04/18 08:19:39;;;;;;;18.63;13.30;;;7.00;99.90;;;;;;494037;241;27945;-76
2023/04/18 08:21:40;;;;;;;20.40;14.20;;;7.10;99.90;;;;;;494001;241;28484;-76
2023/04/18 08:23:41;;;;;;;26.33;16.20;;;7.10;99.90;;;;;;494001;241;27699;-75
2023/04/18 08:25:43;;;;;;;22.70;15.53;;;7.10;99.90;;;;;;493924;241;27518;-75
2023/04/18 08:27:44;;;;;;;20.60;14.53;;;7.10;99.90;;;;;;494021;241;28496;-75
2023/04/18 08:29:45;;;;;;;22.53;14.80;;;7.10;99.90;;;;;;493997;241;28502;-76
2023/04/18 08:31:46;;;;;;;24.70;15.77;;;7.10;99.90;;;;;;493966;241;28064;-76
2023/04/18 08:33:48;;;;;;;22.07;15.60;;;7.00;99.90;;;;;;493969;237;28085;-76
2023/04/18 08:35:49;;;;;;;22.60;15.10;;;6.90;99.90;;;;;;493970;241;28029;-76
2023/04/18 08:37:50;;;;;;;24.00;14.90;;;7.00;99.90;;;;;;493945;241;27998;-76
2023/04/18 08:39:52;;;;;;;22.83;15.50;;;7.00;99.90;;;;;;493940;241;27950;-76
2023/04/18 08:41:53;;;;;;;25.90;15.97;;;6.90;99.90;;;;;;493976;241;27992;-76
2023/04/18 08:43:54;;;;;;;25.73;16.47;;;6.90;99.90;;;;;;493979;241;27560;-75
2023/04/18 08:45:55;;;;;;;26.27;16.10;;;6.80;99.90;;;;;;493889;241;28293;-76
2023/04/18 08:48:00;;;;;;;24.13;15.97;;;6.80;99.90;;;;;;493999;241;28325;-76
2023/04/18 08:49:58;;;;;;;27.67;17.23;;;6.80;99.90;;;;;;493716;241;27637;-75
2023/04/18 08:52:00;;;;;;;24.97;16.20;;;6.90;99.90;;;;;;493948;241;28101;-76
2023/04/18 08:54:03;;;;;;;24.13;16.70;;;7.00;99.90;;;;;;493970;241;27565;-76
2023/04/18 08:56:04;;;;;;;24.83;15.50;;;7.00;99.90;;;;;;493940;241;28102;-75
2023/04/18 08:58:06;;;;;;;24.40;17.47;;;7.10;99.90;;;;;;493979;241;28085;-75
2023/04/18 09:00:10;;;;;;;24.30;16.30;;;7.10;99.90;;;;;;493993;241;28072;-76
2023/04/18 09:02:09;;;;;;;24.60;17.60;;;7.10;99.90;;;;;;493691;241;28171;-75
2023/04/18 09:04:10;;;;;;;26.07;17.17;;;7.20;99.90;;;;;;493931;241;28009;-76
2023/04/18 09:06:12;;;;;;;24.77;16.33;;;7.10;99.90;;;;;;493949;241;27933;-76
2023/04/18 09:08:12;;;;;;;29.23;17.13;;;7.30;99.90;;;;;;493931;241;28396;-76
2023/04/18 09:10:14;;;;;;;25.40;17.20;;;7.20;99.90;;;;;;493964;241;28570;-75
2023/04/18 09:12:16;;;;;;;23.00;15.10;;;7.10;99.90;;;;;;493960;241;28478;-75
2023/04/18 09:14:16;;;;;;;23.03;16.40;;;7.20;99.90;;;;;;493768;241;27748;-76
2023/04/18 09:16:21;;;;;;;24.13;16.43;;;7.30;99.90;;;;;;493921;241;27995;-76
2023/04/18 09:18:18;;;;;;;23.20;16.40;;;7.50;99.90;;;;;;493694;241;27629;-76
2023/04/18 09:20:20;;;;;;;22.47;15.77;;;7.40;99.90;;;;;;494000;241;27903;-76
2023/04/18 09:22:21;;;;;;;22.10;15.57;;;7.40;99.90;;;;;;493960;241;28028;-76
2023/04/18 09:24:28;;;;;;;23.80;14.80;;;7.60;99.90;;;;;;493953;241;28037;-76
2023/04/18 09:26:29;;;;;;;19.77;14.20;;;7.70;99.90;;;;;;493979;241;27462;-75
2023/04/18 09:28:30;;;;;;;19.20;14.60;;;7.60;99.90;;;;;;494002;241;28007;-76
2023/04/18 09:30:32;;;;;;;20.73;14.57;;;7.60;99.90;;;;;;493991;241;27898;-76
2023/04/18 09:32:33;;;;;;;22.57;15.13;;;7.70;99.90;;;;;;494004;241;27944;-76
2023/04/18 09:34:37;;;;;;;20.90;14.13;;;7.80;99.90;;;;;;493902;241;28205;-76
2023/04/18 09:36:36;;;;;;;20.30;13.93;;;7.90;99.90;;;;;;493760;241;29332;-76
2023/04/18 09:38:37;;;;;;;23.57;15.43;;;8.00;99.90;;;;;;494012;241;28399;-76
2023/04/18 09:40:38;;;;;;;24.60;14.90;;;8.10;99.90;;;;;;493990;241;27965;-76
2023/04/18 09:42:39;;;;;;;20.70;14.40;;;7.80;99.90;;;;;;493980;241;27912;-75
2023/04/18 09:44:40;;;;;;;21.17;15.10;;;7.90;99.90;;;;;;493903;241;27839;-76
2023/04/18 09:46:42;;;;;;;22.07;15.17;;;7.90;99.90;;;;;;493970;241;27916;-75
2023/04/18 09:48:43;;;;;;;23.57;15.97;;;7.70;99.90;;;;;;494053;237;27834;-75
2023/04/18 09:50:44;;;;;;;23.17;15.63;;;7.80;99.90;;;;;;494018;241;27904;-76
2023/04/18 09:52:45;;;;;;;22.07;14.80;;;8.00;99.90;;;;;;493996;241;28024;-76
2023/04/18 09:54:47;;;;;;;19.13;14.57;;;7.90;99.90;;;;;;493918;241;28489;-76
2023/04/18 09:56:52;;;;;;;23.43;14.73;;;8.20;99.90;;;;;;493922;237;28586;-76
2023/04/18 09:58:52;;;;;;;21.13;15.73;;;8.20;99.90;;;;;;493805;237;27956;-75
2023/04/18 10:00:53;;;;;;;20.97;15.20;;;8.10;99.90;;;;;;493994;241;28135;-76
2023/04/18 10:02:55;;;;;;;23.97;14.90;;;8.00;99.90;;;;;;493990;237;28515;-76
2023/04/18 10:04:56;;;;;;;23.37;14.53;;;8.30;99.90;;;;;;493953;241;28451;-76
2023/04/18 10:06:57;;;;;;;26.97;16.10;;;8.30;99.90;;;;;;493948;241;28520;-76
2023/04/18 10:08:58;;;;;;;20.63;14.27;;;8.30;99.90;;;;;;493962;241;27630;-76
2023/04/18 10:11:00;;;;;;;20.70;14.73;;;8.40;99.90;;;;;;493977;241;27712;-76
2023/04/18 10:13:01;;;;;;;23.70;16.37;;;8.30;99.90;;;;;;494014;241;27740;-76
2023/04/18 10:15:03;;;;;;;23.90;15.20;;;8.40;99.90;;;;;;493894;241;27690;-76
2023/04/18 10:17:03;;;;;;;23.50;14.60;;;8.50;99.90;;;;;;493933;241;27855;-76
2023/04/18 10:19:05;;;;;;;23.23;14.90;;;8.60;99.90;;;;;;493940;241;28025;-76
2023/04/18 10:21:06;;;;;;;26.50;16.57;;;8.50;99.90;;;;;;493994;241;28399;-76
2023/04/18 10:23:07;;;;;;;21.63;14.80;;;8.30;99.90;;;;;;493956;241;28466;-76